Time;durP1;ratioP1;P1;durP2;ratioP2;P2;SDS_P1;SDS_P2;PMS_P1;PMS_P2;Temp;Humidity;BMP_temperature;BMP_pressure;BME280_temperature;BME280_humidity;BME280_pressure;Samples;Min_cycle;Max_cycle;Signal;HPM_P1;HPM_P2
2022/06/06 00:00:18;;;;;;;0.40;0.20;;;;;;;21.19;100.00;95244.38;5094748;28;20439;-63
2022/06/06 00:02:48;;;;;;;0.40;0.30;;;;;;;21.21;100.00;95221.38;5094674;28;20472;-64
2022/06/06 00:05:17;;;;;;;1.00;1.00;;;;;;;21.10;100.00;95214.84;5094607;28;20460;-64
2022/06/06 00:07:46;;;;;;;0.40;0.20;;;;;;;21.06;100.00;95213.16;5094768;28;21113;-63
2022/06/06 00:10:14;;;;;;;0.40;0.20;;;;;;;20.47;100.00;95121.22;5094298;28;20523;-64
2022/06/06 00:12:44;;;;;;;0.40;0.30;;;;;;;21.14;100.00;95225.75;5094000;28;20471;-63
2022/06/06 00:15:14;;;;;;;0.40;0.20;;;;;;;21.14;100.00;95221.16;5094174;28;20432;-64
2022/06/06 00:17:42;;;;;;;0.50;0.40;;;;;;;21.01;100.00;95210.66;5094194;28;20489;-64
2022/06/06 00:20:11;;;;;;;0.50;0.30;;;;;;;21.13;100.00;95218.78;5094516;28;20844;-64
2022/06/06 00:22:40;;;;;;;0.40;0.30;;;;;;;21.17;100.00;95206.22;5094158;28;20473;-64
2022/06/06 00:25:09;;;;;;;0.50;0.30;;;;;;;21.16;100.00;95213.50;5094416;28;20511;-64
2022/06/06 00:27:37;;;;;;;0.40;0.30;;;;;;;20.89;100.00;95211.47;5094685;28;20564;-64
2022/06/06 00:30:08;;;;;;;0.50;0.50;;;;;;;21.01;100.00;95200.69;5094644;28;20528;-63
2022/06/06 00:35:22;;;;;;;0.40;0.20;;;;;;;21.18;100.00;95205.06;5094396;28;21007;-64
2022/06/06 00:37:51;;;;;;;0.47;0.33;;;;;;;21.20;100.00;95192.06;5094562;28;20491;-63
2022/06/06 00:40:22;;;;;;;0.40;0.20;;;;;;;21.06;100.00;95197.78;5094325;28;20850;-64
2022/06/06 00:42:52;;;;;;;0.70;0.50;;;;;;;21.13;100.00;95197.22;5094297;28;20507;-63
2022/06/06 00:45:31;;;;;;;0.40;0.30;;;;;;;21.12;100.00;95191.06;5093966;28;20456;-63
2022/06/06 00:48:12;;;;;;;0.50;0.30;;;;;;;21.08;100.00;95182.06;5093291;28;20508;-63
2022/06/06 00:50:49;;;;;;;0.70;0.40;;;;;;;21.20;100.00;95192.06;5094103;28;20421;-63
2022/06/06 00:53:22;;;;;;;0.40;0.30;;;;;;;20.72;100.00;95133.59;5094095;28;20464;-63
2022/06/06 00:55:55;;;;;;;3.97;0.97;;;;;;;19.97;100.00;95036.16;5093831;28;20422;-63
2022/06/06 00:58:27;;;;;;;0.50;0.30;;;;;;;20.79;100.00;95191.16;5093553;28;20464;-63
2022/06/06 01:03:43;;;;;;;0.60;0.30;;;;;;;20.84;100.00;95190.94;5093592;28;20436;-63
2022/06/06 01:06:15;;;;;;;0.50;0.30;;;;;;;20.96;100.00;95198.22;5093683;28;20503;-63
2022/06/06 01:08:46;;;;;;;0.40;0.30;;;;;;;20.51;100.00;95114.84;5093749;28;20907;-63
2022/06/06 01:11:14;;;;;;;0.40;0.20;;;;;;;21.25;100.00;95221.50;5093407;28;20477;-63
2022/06/06 01:13:45;;;;;;;0.40;0.23;;;;;;;20.88;100.00;95228.75;5093431;28;20511;-63
2022/06/06 01:16:27;;;;;;;0.73;0.73;;;;;;;20.41;100.00;95211.41;5093675;28;20550;-63
2022/06/06 01:19:14;;;;;;;0.50;0.40;;;;;;;20.25;100.00;95247.03;5093594;28;20428;-63
2022/06/06 01:22:40;;;;;;;0.43;0.30;;;;;;;20.33;100.00;95244.59;5092480;28;20527;-63
2022/06/06 01:25:42;;;;;;;0.50;0.30;;;;;;;20.74;100.00;95239.88;5093564;28;20422;-63
2022/06/06 01:28:33;;;;;;;0.90;0.70;;;;;;;20.47;100.00;95232.38;5093067;28;20507;-63
2022/06/06 01:31:06;;;;;;;0.50;0.30;;;;;;;20.69;100.00;95237.38;5092890;28;20468;-62
2022/06/06 01:33:52;;;;;;;3.50;3.20;;;;;;;20.80;100.00;95222.34;5093415;28;20424;-63
2022/06/06 01:36:22;;;;;;;0.50;0.30;;;;;;;21.03;100.00;95203.03;5092984;28;20471;-62
2022/06/06 01:38:51;;;;;;;0.73;0.50;;;;;;;20.87;100.00;95140.97;5093343;28;20512;-62
2022/06/06 01:41:26;;;;;;;0.50;0.40;;;;;;;20.79;100.00;95088.00;5093121;28;20511;-62
2022/06/06 01:44:05;;;;;;;0.50;0.40;;;;;;;21.11;100.00;95114.03;5093173;28;20503;-62
2022/06/06 01:46:36;;;;;;;0.73;0.40;;;;;;;21.38;100.00;95161.78;5092660;28;20498;-63
2022/06/06 01:49:10;;;;;;;4.10;0.67;;;;;;;21.01;100.00;95102.88;5092972;28;20504;-63
2022/06/06 01:51:39;;;;;;;0.40;0.20;;;;;;;21.18;100.00;95113.44;5092514;28;20938;-62
2022/06/06 01:54:08;;;;;;;4.53;0.30;;;;;;;21.30;100.00;95138.44;5093104;28;20421;-62
2022/06/06 01:56:40;;;;;;;0.53;0.50;;;;;;;20.66;100.00;95108.00;5092730;28;20460;-63
2022/06/06 01:59:09;;;;;;;2.47;0.70;;;;;;;20.71;100.00;95124.72;5092694;28;20456;-63
2022/06/06 02:01:38;;;;;;;0.60;0.50;;;;;;;20.11;100.00;95130.03;5092797;28;20436;-63
2022/06/06 02:04:06;;;;;;;0.50;0.40;;;;;;;20.34;100.00;95120.41;5092870;28;20425;-63
2022/06/06 02:06:35;;;;;;;0.40;0.30;;;;;;;20.14;100.00;95083.59;5092540;28;20475;-62
2022/06/06 02:09:03;;;;;;;0.40;0.20;;;;;;;20.72;100.00;95152.44;5092394;28;20476;-63
2022/06/06 02:11:32;;;;;;;0.50;0.33;;;;;;;20.40;100.00;95137.94;5092477;28;20938;-63
2022/06/06 02:14:00;;;;;;;0.40;0.30;;;;;;;20.51;100.00;95167.91;5092662;28;20471;-63
2022/06/06 02:16:31;;;;;;;0.50;0.40;;;;;;;20.41;100.00;95166.44;5092600;28;20761;-63
2022/06/06 02:19:00;;;;;;;0.90;0.70;;;;;;;20.29;100.00;95184.47;5092265;28;20507;-63
2022/06/06 02:21:28;;;;;;;0.50;0.40;;;;;;;20.15;100.00;95152.44;5092167;28;20462;-63
2022/06/06 02:23:57;;;;;;;0.50;0.50;;;;;;;20.10;100.00;95085.38;5092089;28;20977;-63
2022/06/06 02:26:25;;;;;;;0.60;0.50;;;;;;;20.40;100.00;95110.22;5092316;28;20463;-63
2022/06/06 02:28:53;;;;;;;1.53;0.67;;;;;;;20.59;100.00;95145.47;5092124;28;20571;-63
2022/06/06 02:31:22;;;;;;;0.40;0.30;;;;;;;20.81;100.00;95158.47;5092111;28;20938;-63
2022/06/06 02:33:52;;;;;;;0.40;0.30;;;;;;;20.80;100.00;95144.22;5092230;28;20511;-63
2022/06/06 02:36:20;;;;;;;0.90;0.60;;;;;;;20.49;100.00;95106.28;5092254;28;20417;-63
2022/06/06 02:38:49;;;;;;;0.50;0.40;;;;;;;20.66;100.00;95132.22;5091932;28;20424;-63
2022/06/06 02:41:19;;;;;;;0.60;0.40;;;;;;;20.14;100.00;95175.88;5091990;28;20865;-63
2022/06/06 02:43:48;;;;;;;0.50;0.40;;;;;;;19.45;100.00;95105.84;5092557;28;20515;-64
2022/06/06 02:46:17;;;;;;;0.53;0.40;;;;;;;19.80;100.00;95117.06;5113181;28;20451;-63
2022/06/06 02:48:45;;;;;;;0.50;0.50;;;;;;;20.41;100.00;95187.19;5092091;28;20987;-63
2022/06/06 02:51:15;;;;;;;6.23;0.70;;;;;;;20.26;100.00;95213.59;5091779;28;20489;-63
2022/06/06 02:53:44;;;;;;;0.60;0.60;;;;;;;20.25;100.00;95212.03;5091323;28;20519;-63
2022/06/06 02:56:13;;;;;;;0.50;0.50;;;;;;;20.41;100.00;95267.94;5092013;28;20833;-63
2022/06/06 02:58:42;;;;;;;0.40;0.30;;;;;;;20.01;100.00;95238.81;5091787;28;20532;-63
2022/06/06 03:01:12;;;;;;;0.47;0.40;;;;;;;20.36;100.00;95281.63;5091888;28;20495;-63
2022/06/06 03:03:41;;;;;;;0.50;0.30;;;;;;;20.32;100.00;95280.69;5091592;28;20926;-63
2022/06/06 03:06:29;;;;;;;0.50;0.50;;;;;;;20.42;100.00;95261.41;5091917;28;20428;-63
2022/06/06 03:09:06;;;;;;;0.50;0.50;;;;;;;20.29;100.00;95249.06;5091525;28;20547;-63
2022/06/06 03:12:08;;;;;;;0.40;0.30;;;;;;;20.73;100.00;95285.97;5093632;28;20447;-62
2022/06/06 03:15:17;;;;;;;0.50;0.40;;;;;;;20.01;100.00;95178.88;5092533;28;20560;-62
2022/06/06 03:20:49;;;;;;;0.83;0.60;;;;;;;20.87;100.00;95281.84;5072296;28;20468;-62
2022/06/06 03:24:02;;;;;;;0.40;0.30;;;;;;;19.60;100.00;95129.41;5095438;28;20564;-61
2022/06/06 03:26:46;;;;;;;0.50;0.40;;;;;;;20.71;100.00;95297.09;5095599;28;20501;-61
2022/06/06 03:29:28;;;;;;;0.40;0.30;;;;;;;20.80;100.00;95259.25;5095020;28;21068;-60
2022/06/06 03:32:13;;;;;;;0.50;0.30;;;;;;;20.95;100.00;95279.41;5095302;28;20479;-60
2022/06/06 03:34:49;;;;;;;0.40;0.30;;;;;;;20.86;100.00;95291.06;5095330;28;20473;-60
2022/06/06 03:37:27;;;;;;;0.50;0.40;;;;;;;20.69;100.00;95290.47;5095507;28;20432;-60
2022/06/06 03:40:05;;;;;;;0.50;0.30;;;;;;;20.54;100.00;95267.63;5094437;28;20436;-60
2022/06/06 03:42:38;;;;;;;0.40;0.30;;;;;;;20.66;100.00;95243.44;5094883;28;21025;-60
2022/06/06 03:45:16;;;;;;;0.60;0.30;;;;;;;20.43;100.00;95222.63;5095102;28;20479;-60
2022/06/06 03:47:57;;;;;;;0.57;0.43;;;;;;;20.44;100.00;95280.75;5095095;28;20503;-60
2022/06/06 03:50:38;;;;;;;1.57;0.60;;;;;;;20.41;100.00;95268.72;5095133;28;20456;-60
2022/06/06 03:53:15;;;;;;;0.50;0.30;;;;;;;20.01;100.00;95224.59;5094956;28;20987;-59
2022/06/06 03:56:00;;;;;;;0.50;0.33;;;;;;;20.16;100.00;95243.59;5094845;28;20463;-59
2022/06/06 03:58:31;;;;;;;1.50;0.63;;;;;;;20.17;100.00;95261.31;5094783;28;20436;-58
2022/06/06 04:01:04;;;;;;;0.80;0.30;;;;;;;20.66;100.00;95227.28;5094642;28;20490;-59
2022/06/06 04:03:34;;;;;;;0.40;0.30;;;;;;;20.98;100.00;95219.44;5094276;28;20504;-59
2022/06/06 04:06:04;;;;;;;0.50;0.30;;;;;;;21.26;100.00;95244.59;5094523;28;20428;-59
2022/06/06 04:08:33;;;;;;;0.60;0.40;;;;;;;19.62;100.00;95092.22;5094544;28;20448;-59
2022/06/06 04:11:13;;;;;;;0.50;0.30;;;;;;;20.04;100.00;95211.25;5094413;28;20966;-58
2022/06/06 04:13:47;;;;;;;0.50;0.43;;;;;;;20.50;100.00;95244.41;5094756;28;20432;-58
2022/06/06 04:16:30;;;;;;;0.50;0.40;;;;;;;19.93;100.00;95220.88;5094649;28;20432;-58
2022/06/06 04:19:10;;;;;;;0.43;0.30;;;;;;;19.90;100.00;95175.00;5094743;28;20424;-59
2022/06/06 04:21:49;;;;;;;2.23;1.90;;;;;;;20.54;100.00;95239.94;5094351;28;20467;-58
2022/06/06 04:24:44;;;;;;;0.40;0.30;;;;;;;20.54;100.00;95240.69;5093247;28;20519;-58
2022/06/06 04:27:24;;;;;;;0.40;0.30;;;;;;;21.10;100.00;95241.03;5094321;28;20428;-58
2022/06/06 04:30:02;;;;;;;0.77;0.60;;;;;;;21.42;100.00;95242.81;5093753;28;20519;-58
2022/06/06 04:32:42;;;;;;;0.50;0.40;;;;;;;21.55;100.00;95251.66;5094092;28;20444;-58
2022/06/06 04:35:28;;;;;;;0.50;0.37;;;;;;;21.57;100.00;95244.81;5093907;28;20458;-58
2022/06/06 04:38:06;;;;;;;0.40;0.30;;;;;;;21.55;100.00;95222.78;5094167;28;20424;-58
2022/06/06 04:40:44;;;;;;;0.40;0.30;;;;;;;21.79;100.00;95208.44;5092748;28;20432;-58
2022/06/06 04:43:21;;;;;;;0.50;0.40;;;;;;;22.19;100.00;95220.00;5093907;28;20507;-58
2022/06/06 04:45:57;;;;;;;1.43;1.23;;;;;;;22.24;100.00;95230.53;5093750;28;20419;-57
2022/06/06 04:48:27;;;;;;;0.50;0.40;;;;;;;22.29;100.00;95232.25;5093665;28;20512;-57
2022/06/06 04:50:58;;;;;;;0.50;0.30;;;;;;;22.17;100.00;95233.06;5093426;28;20515;-58
2022/06/06 04:53:29;;;;;;;0.57;0.50;;;;;;;21.99;100.00;95223.69;5093057;28;20856;-58
2022/06/06 04:55:59;;;;;;;0.50;0.40;;;;;;;21.75;100.00;95224.53;5093183;28;20420;-58
2022/06/06 04:58:32;;;;;;;0.60;0.40;;;;;;;22.03;100.00;95229.97;5093339;28;20478;-58
2022/06/06 05:01:03;;;;;;;2.20;1.17;;;;;;;22.28;100.00;95231.44;5093852;28;20447;-58
2022/06/06 05:03:31;;;;;;;1.87;1.77;;;;;;;22.19;100.00;95235.44;5093427;28;20428;-58
2022/06/06 05:06:24;;;;;;;0.50;0.40;;;;;;;21.51;100.00;95208.41;5093458;28;20424;-59
2022/06/06 05:09:11;;;;;;;0.60;0.40;;;;;;;21.52;100.00;95218.06;5094056;28;20429;-51
2022/06/06 05:11:49;;;;;;;0.60;0.40;;;;;;;22.15;100.00;95235.31;5093427;28;20413;-51
2022/06/06 05:14:54;;;;;;;0.50;0.50;;;;;;;22.55;100.00;95233.31;5093433;28;20428;-51
2022/06/06 05:17:43;;;;;;;0.70;0.60;;;;;;;22.04;100.00;95226.13;5093222;28;20997;-51
2022/06/06 05:20:30;;;;;;;0.60;0.40;;;;;;;21.75;100.00;95240.72;5093179;28;20435;-51
2022/06/06 05:23:23;;;;;;;0.50;0.30;;;;;;;22.12;100.00;95236.00;5093358;28;20530;-52
2022/06/06 05:26:17;;;;;;;0.80;0.60;;;;;;;22.85;100.00;95238.31;5092878;28;20462;-50
2022/06/06 05:29:10;;;;;;;0.60;0.60;;;;;;;22.58;100.00;95229.13;5089790;28;20448;-50
2022/06/06 05:31:57;;;;;;;0.83;0.80;;;;;;;22.82;100.00;95185.75;5091314;28;20883;-50
2022/06/06 05:34:33;;;;;;;0.90;0.50;;;;;;;23.32;100.00;95220.97;5093100;28;20506;-50
2022/06/06 05:37:17;;;;;;;0.50;0.50;;;;;;;22.30;100.00;95223.78;5092971;28;20468;-50
2022/06/06 05:40:05;;;;;;;0.60;0.40;;;;;;;22.48;100.00;95230.44;5092924;28;20421;-50
2022/06/06 05:42:49;;;;;;;0.87;0.87;;;;;;;22.83;100.00;95227.09;5092806;28;20424;-50
2022/06/06 05:45:29;;;;;;;0.80;0.70;;;;;;;23.26;100.00;95216.94;5092791;28;20918;-51
2022/06/06 05:48:12;;;;;;;0.60;0.60;;;;;;;23.86;100.00;95225.59;5092665;28;20459;-50
2022/06/06 05:50:57;;;;;;;0.40;0.30;;;;;;;23.08;100.00;95096.00;5092691;28;20476;-51
2022/06/06 05:53:40;;;;;;;0.53;0.53;;;;;;;23.66;100.00;95230.22;5092588;28;20436;-51
2022/06/06 05:56:29;;;;;;;0.67;0.67;;;;;;;24.56;100.00;95237.09;5092735;28;20420;-51
2022/06/06 05:59:13;;;;;;;1.07;1.07;;;;;;;24.99;100.00;95241.34;5092716;28;20463;-51
2022/06/06 06:02:02;;;;;;;0.60;0.60;;;;;;;25.15;100.00;95217.56;5092847;28;20455;-56
2022/06/06 06:04:47;;;;;;;0.50;0.40;;;;;;;21.16;100.00;94619.81;5091749;28;20437;-56
2022/06/06 06:07:26;;;;;;;0.73;0.70;;;;;;;24.60;100.00;95224.38;5092686;28;20507;-58
2022/06/06 06:10:11;;;;;;;0.40;0.40;;;;;;;24.67;100.00;95235.34;5092261;28;20502;-56
2022/06/06 06:13:10;;;;;;;0.40;0.30;;;;;;;24.89;100.00;95187.72;5092238;28;20433;-55
2022/06/06 06:15:40;;;;;;;0.40;0.40;;;;;;;25.56;100.00;95227.53;5092266;28;20432;-56
2022/06/06 06:18:18;;;;;;;0.53;0.37;;;;;;;25.95;100.00;95210.97;5092245;28;20455;-55
2022/06/06 06:20:52;;;;;;;0.50;0.50;;;;;;;25.84;100.00;95219.78;5092109;28;20614;-55
2022/06/06 06:23:25;;;;;;;0.60;0.50;;;;;;;25.73;100.00;95212.63;5092022;28;20452;-55
2022/06/06 06:25:55;;;;;;;0.60;0.57;;;;;;;25.35;100.00;95204.72;5092213;28;20428;-55
2022/06/06 06:28:27;;;;;;;0.60;0.40;;;;;;;25.81;100.00;95211.56;5092397;28;20428;-55
2022/06/06 06:31:05;;;;;;;0.73;0.73;;;;;;;25.22;100.00;95147.19;5091765;28;20495;-55
2022/06/06 06:33:54;;;;;;;0.40;0.40;;;;;;;25.81;100.00;95203.44;5092118;28;20436;-55
2022/06/06 06:36:36;;;;;;;0.60;0.40;;;;;;;26.46;100.00;95198.41;5071591;28;20463;-55
2022/06/06 06:39:22;;;;;;;0.40;0.30;;;;;;;27.21;88.12;95200.66;5092144;28;20864;-55
2022/06/06 06:42:04;;;;;;;0.70;0.70;;;;;;;27.65;83.49;95190.44;5091942;28;20503;-55
2022/06/06 06:44:41;;;;;;;0.60;0.60;;;;;;;27.56;83.60;95184.56;5091697;28;20444;-55
2022/06/06 06:47:12;;;;;;;1.27;0.60;;;;;;;27.43;87.66;95177.09;5091248;28;20504;-55
2022/06/06 06:49:45;;;;;;;0.47;0.30;;;;;;;27.17;79.98;95178.09;5092034;28;20505;-56
2022/06/06 06:52:31;;;;;;;0.50;0.50;;;;;;;27.41;76.61;95182.94;5092192;28;20550;-55
2022/06/06 06:55:10;;;;;;;9.43;1.13;;;;;;;27.29;78.35;95185.16;5092085;28;20440;-56
2022/06/06 06:57:55;;;;;;;0.43;0.43;;;;;;;27.08;76.68;95174.91;5091744;28;20503;-57
2022/06/06 07:00:25;;;;;;;0.70;0.30;;;;;;;27.24;79.74;95182.78;5092166;28;20849;-57
2022/06/06 07:09:12;;;;;;;0.97;0.50;;;;;;;26.86;86.92;95178.63;5091624;28;21029;-58
2022/06/06 07:11:53;;;;;;;3.23;1.23;;;;;;;27.38;85.48;95196.47;5091046;28;20566;-59
2022/06/06 07:14:38;;;;;;;0.40;0.30;;;;;;;27.49;86.76;95190.00;5092288;28;20455;-58
2022/06/06 07:17:09;;;;;;;8.60;0.43;;;;;;;27.30;84.52;95192.94;5091548;28;20531;-59
2022/06/06 07:19:44;;;;;;;0.40;0.40;;;;;;;26.77;81.38;95181.63;5091592;28;20428;-59
2022/06/06 07:22:14;;;;;;;0.40;0.40;;;;;;;26.97;80.57;95195.78;5091512;28;20503;-59
2022/06/06 07:24:46;;;;;;;0.50;0.50;;;;;;;27.22;84.21;95204.94;5091437;28;20807;-59
2022/06/06 07:27:14;;;;;;;0.40;0.30;;;;;;;27.20;89.57;95190.91;5091482;28;20516;-60
2022/06/06 07:29:43;;;;;;;0.50;0.30;;;;;;;26.98;83.63;95181.81;5091200;28;21005;-59
2022/06/06 07:32:32;;;;;;;0.40;0.33;;;;;;;27.26;82.66;95186.69;5090568;28;20833;-59
2022/06/06 07:35:11;;;;;;;0.30;0.20;;;;;;;27.83;73.30;95184.34;5091529;28;20421;-59
2022/06/06 07:37:58;;;;;;;1.60;0.47;;;;;;;27.89;79.28;95169.16;5091401;28;20437;-60
2022/06/06 07:40:38;;;;;;;0.40;0.37;;;;;;;28.74;69.21;95181.91;5091486;28;20464;-59
2022/06/06 07:43:25;;;;;;;7.93;0.50;;;;;;;28.59;70.99;95179.56;5091384;28;20474;-59
2022/06/06 07:46:02;;;;;;;0.50;0.50;;;;;;;28.22;79.12;95179.84;5091268;28;20424;-59
2022/06/06 07:48:49;;;;;;;3.37;1.30;;;;;;;28.16;72.74;95159.56;5091219;28;20898;-59
2022/06/06 07:51:27;;;;;;;1.27;1.17;;;;;;;27.82;72.10;95186.28;5091500;28;20543;-59
2022/06/06 07:54:05;;;;;;;0.30;0.30;;;;;;;27.44;78.56;95132.41;5091370;28;20937;-66
2022/06/06 07:56:41;;;;;;;0.40;0.30;;;;;;;28.05;71.06;95150.59;5091461;28;20485;-66
2022/06/06 07:59:21;;;;;;;0.40;0.30;;;;;;;27.75;66.00;95038.38;5094375;28;20799;-65
2022/06/06 08:02:00;;;;;;;1.47;0.40;;;;;;;28.65;70.16;95162.44;5094917;28;20436;-65
2022/06/06 08:04:41;;;;;;;1.23;0.30;;;;;;;27.75;64.13;95022.84;5094878;28;20428;-64
2022/06/06 08:07:21;;;;;;;0.50;0.40;;;;;;;28.95;64.36;95181.94;5095474;28;20519;-61
2022/06/06 08:10:13;;;;;;;2.40;2.30;;;;;;;29.43;60.20;95167.88;5094778;28;20424;-60
2022/06/06 08:12:59;;;;;;;0.30;0.30;;;;;;;30.24;56.23;95158.66;5094306;28;20502;-58
2022/06/06 08:15:35;;;;;;;6.83;1.43;;;;;;;30.72;55.79;95160.34;5094714;28;20504;-58
2022/06/06 08:18:23;;;;;;;0.40;0.40;;;;;;;29.64;49.18;95033.22;5094142;28;20446;-58
2022/06/06 08:21:03;;;;;;;0.50;0.43;;;;;;;29.89;50.18;95137.72;5094480;28;20978;-58
2022/06/06 08:23:35;;;;;;;4.23;0.30;;;;;;;29.58;52.28;95104.63;5094534;28;20463;-58
2022/06/06 08:26:04;;;;;;;1.90;0.30;;;;;;;30.70;45.66;95150.97;5094227;28;20785;-58
2022/06/06 08:28:39;;;;;;;0.40;0.40;;;;;;;31.05;45.69;95147.97;5094173;28;20460;-58
2022/06/06 08:31:08;;;;;;;0.30;0.30;;;;;;;30.84;48.59;95142.63;5093356;28;20485;-58
2022/06/06 08:33:36;;;;;;;0.40;0.30;;;;;;;31.17;50.02;95142.00;5094112;28;20428;-59
2022/06/06 08:36:19;;;;;;;0.50;0.50;;;;;;;31.28;49.09;95115.31;5094341;28;20492;-58
2022/06/06 08:39:00;;;;;;;0.83;0.30;;;;;;;30.49;48.96;95022.53;5093704;28;20473;-57
2022/06/06 08:42:05;;;;;;;0.60;0.60;;;;;;;31.35;44.60;95111.69;5093938;28;20472;-57
2022/06/06 08:44:51;;;;;;;1.90;1.33;;;;;;;31.82;43.89;95131.97;5093986;28;20840;-58
2022/06/06 08:47:32;;;;;;;0.30;0.30;;;;;;;31.91;44.12;95129.50;5093963;28;20474;-58
2022/06/06 08:53:48;;;;;;;0.87;0.87;;;;;;;31.40;52.50;95131.22;5093388;28;20436;-58
2022/06/06 08:56:46;;;;;;;0.80;0.80;;;;;;;31.14;51.12;95115.47;5093946;28;20452;-58
2022/06/06 08:59:47;;;;;;;9.60;0.30;;;;;;;30.62;50.84;95119.38;5093793;28;20463;-58
2022/06/06 09:03:00;;;;;;;0.40;0.30;;;;;;;30.84;52.64;95109.81;5093020;28;20467;-58
2022/06/06 09:05:56;;;;;;;0.63;0.50;;;;;;;30.97;52.16;95108.16;5080451;28;20471;-58
2022/06/06 09:09:15;;;;;;;0.40;0.30;;;;;;;31.25;50.49;95102.41;5092171;28;20439;-58
2022/06/06 09:12:47;;;;;;;0.40;0.40;;;;;;;31.21;49.52;95095.44;5092988;28;20555;-58
2022/06/06 09:16:01;;;;;;;3.30;0.73;;;;;;;30.67;50.23;95102.53;5093306;28;20475;-59
2022/06/06 09:18:55;;;;;;;1.60;0.60;;;;;;;30.49;49.89;95099.91;5093091;28;20428;-58
2022/06/06 09:22:08;;;;;;;0.50;0.50;;;;;;;31.03;48.29;95098.34;5092303;28;20950;-58
2022/06/06 09:25:14;;;;;;;0.80;0.50;;;;;;;31.15;48.44;95086.88;5086967;28;20957;-58
2022/06/06 09:28:14;;;;;;;0.40;0.30;;;;;;;31.99;45.98;95070.69;5092874;28;20423;-59
2022/06/06 09:31:23;;;;;;;0.40;0.40;;;;;;;32.80;43.90;95063.22;5091839;28;20510;-58
2022/06/06 09:34:29;;;;;;;2.37;0.67;;;;;;;32.76;42.06;95062.50;5070910;28;20431;-58
2022/06/06 09:37:10;;;;;;;0.40;0.40;;;;;;;33.27;41.21;95048.25;5092997;28;20941;-60
2022/06/06 09:39:55;;;;;;;0.40;0.37;;;;;;;33.52;41.02;95025.81;5092952;28;20497;-60
2022/06/06 09:42:40;;;;;;;1.10;0.53;;;;;;;33.96;40.52;95013.50;5093242;28;20530;-60
2022/06/06 09:45:29;;;;;;;0.60;0.30;;;;;;;34.46;38.00;95016.66;5092770;28;20432;-60
2022/06/06 09:48:23;;;;;;;4.23;2.53;;;;;;;34.30;39.80;95013.94;5093153;28;20416;-59
2022/06/06 09:51:29;;;;;;;0.70;0.40;;;;;;;33.92;42.86;95010.84;5092610;28;20466;-59
2022/06/06 10:01:14;;;;;;;0.43;0.40;;;;;;;34.21;40.04;94980.72;5092637;28;20432;-64
2022/06/06 10:04:33;;;;;;;0.40;0.30;;;;;;;34.15;37.88;94957.69;5092712;28;20447;-64
2022/06/06 10:07:32;;;;;;;1.17;0.40;;;;;;;34.77;40.39;94990.38;5055063;28;20531;-65
2022/06/06 10:10:33;;;;;;;1.50;0.90;;;;;;;35.03;36.19;94994.78;5059192;28;20498;-65
2022/06/06 10:13:17;;;;;;;0.40;0.30;;;;;;;35.28;34.61;94988.63;5018509;28;20873;-64
2022/06/06 10:16:02;;;;;;;0.30;0.20;;;;;;;36.01;33.61;94995.22;5092487;28;20861;-64
2022/06/06 10:18:56;;;;;;;0.30;0.20;;;;;;;35.23;36.58;95000.19;5092212;28;20423;-64
2022/06/06 10:21:45;;;;;;;0.40;0.40;;;;;;;35.61;33.40;94995.59;5091522;28;20514;-64
2022/06/06 10:24:31;;;;;;;0.30;0.30;;;;;;;35.81;35.29;94980.81;5092456;28;20437;-64
2022/06/06 10:27:10;;;;;;;0.40;0.30;;;;;;;36.17;34.76;95004.16;5092058;28;20501;-64
2022/06/06 10:30:12;;;;;;;0.83;0.40;;;;;;;36.15;34.98;95025.91;5091975;28;20221;-65
2022/06/06 10:33:06;;;;;;;0.80;0.50;;;;;;;35.88;35.44;95042.06;5091821;28;20214;-64
2022/06/06 10:35:48;;;;;;;0.60;0.60;;;;;;;35.37;35.59;95054.16;5092071;28;20282;-64
2022/06/06 10:38:47;;;;;;;0.67;0.67;;;;;;;34.78;36.51;95054.47;5092239;28;20590;-63
2022/06/06 10:41:38;;;;;;;0.50;0.40;;;;;;;34.49;35.28;95059.84;5091996;28;20278;-63
2022/06/06 10:44:31;;;;;;;1.90;1.90;;;;;;;33.07;38.84;95075.69;5091947;28;20691;-63
2022/06/06 10:47:12;;;;;;;0.30;0.30;;;;;;;32.24;37.47;95076.59;5092069;28;20766;-63
2022/06/06 10:49:49;;;;;;;5.77;0.60;;;;;;;29.61;34.39;95064.03;5091820;28;20482;-62
2022/06/06 10:53:00;;;;;;;0.40;0.30;;;;;;;29.59;32.65;95080.84;5091684;28;20830;-62
2022/06/06 10:55:54;;;;;;;0.30;0.20;;;;;;;28.59;33.98;95073.94;5091948;28;20843;-61
2022/06/06 10:58:58;;;;;;;0.40;0.30;;;;;;;29.12;33.28;95078.63;5091517;28;20470;-59
2022/06/06 11:02:08;;;;;;;0.40;0.30;;;;;;;28.69;33.86;95080.63;5068697;28;20451;-59
2022/06/06 11:05:07;;;;;;;0.60;0.40;;;;;;;28.51;34.77;95083.31;5050862;28;20443;-59
2022/06/06 11:08:12;;;;;;;0.30;0.20;;;;;;;28.37;37.15;95072.38;5091341;28;20464;-59
2022/06/06 11:11:25;;;;;;;0.30;0.30;;;;;;;28.22;35.51;95081.72;5049964;28;20894;-59
2022/06/06 11:14:02;;;;;;;0.30;0.20;;;;;;;28.32;39.05;95103.53;5051110;28;21025;-59
2022/06/06 11:16:54;;;;;;;4.10;0.80;;;;;;;28.23;36.40;95119.47;5091745;28;20436;-60
2022/06/06 11:19:56;;;;;;;0.30;0.20;;;;;;;28.27;36.13;95130.41;5091294;28;20444;-60
2022/06/06 11:22:31;;;;;;;0.40;0.30;;;;;;;27.57;36.29;95076.47;5091325;28;20840;-60
2022/06/06 11:25:11;;;;;;;0.40;0.30;;;;;;;27.15;41.84;95125.97;5091516;28;20990;-60
2022/06/06 11:28:09;;;;;;;0.40;0.20;;;;;;;27.67;43.79;95103.75;5091536;28;20910;-60
2022/06/06 11:31:15;;;;;;;0.40;0.30;;;;;;;27.62;42.83;95101.38;5091083;28;20472;-60
2022/06/06 11:34:27;;;;;;;0.40;0.30;;;;;;;27.53;41.20;95087.31;5094637;28;20509;-60
2022/06/06 11:37:39;;;;;;;0.40;0.20;;;;;;;27.65;41.81;95095.16;5094962;28;20974;-60
2022/06/06 11:40:37;;;;;;;1.73;0.33;;;;;;;27.47;44.09;95097.03;5095138;28;20463;-60
2022/06/06 11:43:28;;;;;;;2.97;0.50;;;;;;;26.80;44.80;95082.19;5094873;28;20519;-59
2022/06/06 11:46:26;;;;;;;2.93;1.30;;;;;;;26.31;49.99;95088.00;5094792;28;20435;-59
2022/06/06 11:49:27;;;;;;;0.40;0.30;;;;;;;26.99;45.77;95101.75;5094881;28;20431;-59
2022/06/06 11:52:32;;;;;;;0.40;0.30;;;;;;;27.35;42.31;95102.75;5095781;28;20440;-59
2022/06/06 11:55:31;;;;;;;0.50;0.50;;;;;;;27.35;41.18;95102.75;5095076;28;20549;-59
2022/06/06 11:58:28;;;;;;;1.37;0.90;;;;;;;27.35;43.18;95108.19;5094635;28;20467;-59
2022/06/06 12:01:15;;;;;;;0.30;0.20;;;;;;;27.36;42.59;95098.09;5094296;28;20471;-59
2022/06/06 12:04:24;;;;;;;0.30;0.30;;;;;;;27.46;39.92;95091.97;5094114;28;20444;-59
2022/06/06 12:07:47;;;;;;;0.40;0.20;;;;;;;27.44;43.74;95073.28;5031992;28;21051;-59
2022/06/06 12:10:22;;;;;;;0.37;0.20;;;;;;;27.24;42.84;95058.41;5094538;28;20534;-59
2022/06/06 12:13:16;;;;;;;0.57;0.30;;;;;;;27.12;42.15;95058.72;5094608;28;20507;-59
2022/06/06 12:16:03;;;;;;;0.40;0.33;;;;;;;27.12;41.41;95061.44;5094569;28;20501;-59
2022/06/06 12:18:48;;;;;;;0.30;0.20;;;;;;;27.51;46.72;95092.38;5094232;28;20519;-59
2022/06/06 12:22:04;;;;;;;0.40;0.20;;;;;;;27.12;39.81;95083.22;5093953;28;20922;-59
2022/06/06 12:25:03;;;;;;;0.37;0.30;;;;;;;27.30;44.20;95070.47;5093940;28;20531;-59
2022/06/06 12:27:57;;;;;;;0.30;0.20;;;;;;;27.14;46.37;95064.56;5089010;28;20953;-59
2022/06/06 12:30:48;;;;;;;0.30;0.20;;;;;;;27.13;48.34;95065.72;5093701;28;20533;-59
2022/06/06 12:33:24;;;;;;;0.40;0.30;;;;;;;26.49;53.30;95103.28;5094303;28;20464;-58
2022/06/06 12:35:58;;;;;;;0.50;0.30;;;;;;;25.67;59.35;95117.19;5093791;28;20432;-58
2022/06/06 12:38:41;;;;;;;0.67;0.57;;;;;;;25.33;63.02;95115.53;5093822;28;21139;-57
2022/06/06 12:41:24;;;;;;;0.40;0.30;;;;;;;24.98;64.49;95069.72;5093737;28;20471;-58
2022/06/06 12:44:05;;;;;;;0.40;0.20;;;;;;;25.25;65.39;95117.38;5092748;28;20459;-58
2022/06/06 12:47:04;;;;;;;0.70;0.50;;;;;;;25.46;64.76;95133.19;5094039;28;20477;-58
2022/06/06 12:49:46;;;;;;;0.40;0.20;;;;;;;25.50;66.76;95147.56;5091479;28;21147;-58
2022/06/06 12:52:42;;;;;;;0.40;0.20;;;;;;;25.70;63.02;95167.25;5093631;28;20975;-58
2022/06/06 12:55:33;;;;;;;0.50;0.43;;;;;;;25.13;75.00;95176.47;5093628;28;20429;-58
2022/06/06 12:58:15;;;;;;;0.73;0.40;;;;;;;24.56;77.56;95167.44;5093405;28;20432;-58
2022/06/06 13:03:54;;;;;;;0.40;0.20;;;;;;;24.69;84.38;95167.22;5093442;28;20429;-58
2022/06/06 13:06:34;;;;;;;0.40;0.30;;;;;;;24.36;91.98;95165.13;5093639;28;20511;-58
2022/06/06 13:09:18;;;;;;;0.50;0.30;;;;;;;24.45;92.65;95165.66;5093214;28;20476;-58